Terminal Aerodrome Forecast
Issued by NWS

Home | Current Version | Previous Version | Graphics & Text | Print | Product List | Glossary On
Versions: 1 2 3 4 5 6 7 8 9 10 11 12 13 14 15 16 17 18 19 20 21 22
666
FTUS43 KMPX 182357 AAA
TAFRWF
TAF AMD
KRWF 182357Z 1900/1924 33012G18KT P6SM BKN110
     FM190200 33014G22KT P6SM OVC050
     FM190900 35015G21KT P6SM OVC015 PROB30 1915/1920 P6SM -SN
     FM192000 35014G20KT 3SM -SN BR OVC015=

USA.gov is the U.S. government's official web portal to all federal, state and local government web resources and services.